createdAt,value
2018-04-02T00:01:55.441Z,4.40
2018-04-02T00:04:23.415Z,1.20
2018-04-02T00:06:51.438Z,2.87
2018-04-02T00:09:19.486Z,35.53
2018-04-02T00:11:47.554Z,5.07
2018-04-02T00:14:15.572Z,2.63
2018-04-02T00:16:43.520Z,2.63
2018-04-02T00:19:11.543Z,3.87
2018-04-02T00:21:39.598Z,1.13
2018-04-02T00:24:07.550Z,1.83
2018-04-02T00:26:35.581Z,1.30
2018-04-02T00:29:03.609Z,1.37
2018-04-02T00:31:31.570Z,1.60
2018-04-02T00:33:59.598Z,3.33
2018-04-02T00:36:27.643Z,1.10
2018-04-02T00:38:55.663Z,2.27
2018-04-02T00:41:23.783Z,1.00
2018-04-02T00:43:51.908Z,76.23
2018-04-02T00:46:19.934Z,97.23
2018-04-02T00:48:47.929Z,4.83
2018-04-02T00:51:16.083Z,4.70
2018-04-02T00:53:44.109Z,4.60
2018-04-02T00:56:12.095Z,7.53
2018-04-02T00:58:40.049Z,3.60
2018-04-02T01:01:08.036Z,1.73
2018-04-02T01:03:36.065Z,1.77
2018-04-02T01:06:04.039Z,1.80
2018-04-02T01:08:32.081Z,3.30
2018-04-02T01:11:00.113Z,1.47
2018-04-02T01:13:28.226Z,5.20
2018-04-02T01:15:56.270Z,1.83
2018-04-02T01:18:24.328Z,2.53
2018-04-02T01:20:52.567Z,2.53
2018-04-02T01:23:20.609Z,31.77
2018-04-02T01:25:48.703Z,10.20
2018-04-02T01:28:16.857Z,2.40
2018-04-02T01:30:44.884Z,2.00
2018-04-02T01:33:12.863Z,2.37
2018-04-02T01:35:40.888Z,1.23
2018-04-02T01:38:08.916Z,1.33
2018-04-02T01:40:36.895Z,1.23
2018-04-02T01:43:04.898Z,2.27
2018-04-02T01:45:32.929Z,1.47
2018-04-02T01:48:00.849Z,1.80
2018-04-02T01:50:28.847Z,2.40
2018-04-02T01:52:57.198Z,3.73
2018-04-02T01:55:25.199Z,2.00
2018-04-02T01:57:53.261Z,2.30
2018-04-02T02:00:21.308Z,2.50
2018-04-02T02:02:49.322Z,4.97
2018-04-02T02:05:17.288Z,2.90
2018-04-02T02:07:45.273Z,3.00
2018-04-02T02:10:13.299Z,2.33
2018-04-02T02:12:41.360Z,2.93
2018-04-02T02:15:09.371Z,3.57
2018-04-02T02:17:37.332Z,5.87
2018-04-02T02:20:05.387Z,4.37
2018-04-02T02:22:33.446Z,7.00
2018-04-02T02:25:01.563Z,4.67
2018-04-02T02:27:29.569Z,4.40
2018-04-02T02:29:57.574Z,4.03
2018-04-02T02:32:25.549Z,3.70
2018-04-02T02:34:53.512Z,26.53
2018-04-02T02:37:21.529Z,13.97
2018-04-02T02:39:49.550Z,24.93
2018-04-02T02:42:17.663Z,5.90
2018-04-02T02:44:45.741Z,25.17
2018-04-02T02:47:13.856Z,9.17
2018-04-02T02:49:41.811Z,10.53
2018-04-02T02:52:09.774Z,3.60
2018-04-02T02:54:37.950Z,3.47
2018-04-02T02:57:05.969Z,4.00
2018-04-02T02:59:34.013Z,8.23
2018-04-02T03:02:02.050Z,3.67
2018-04-02T03:04:30.066Z,3.03
2018-04-02T03:06:58.050Z,3.80
2018-04-02T03:09:26.018Z,3.50
2018-04-02T03:11:53.958Z,3.53
2018-04-02T03:14:22.004Z,3.73
2018-04-02T03:16:50.051Z,5.73
2018-04-02T03:19:18.095Z,8.90
2018-04-02T03:21:46.110Z,10.10
2018-04-02T03:24:14.098Z,9.30
2018-04-02T03:26:42.114Z,13.30
2018-04-02T03:29:10.142Z,8.27
2018-04-02T03:31:38.197Z,9.27
2018-04-02T03:34:06.181Z,9.93
2018-04-02T03:36:34.176Z,10.50
2018-04-02T03:39:02.294Z,11.27
2018-04-02T03:41:30.260Z,14.20
2018-04-02T03:43:58.214Z,16.67
2018-04-02T03:46:26.223Z,9.90
2018-04-02T03:48:54.259Z,29.77
2018-04-02T03:51:22.317Z,32.33
2018-04-02T03:53:50.407Z,27.33
2018-04-02T03:56:18.696Z,14.97
2018-04-02T03:58:46.698Z,17.70
2018-04-02T04:01:14.724Z,81.57
2018-04-02T04:03:42.790Z,32.63
2018-04-02T04:06:10.781Z,47.73
2018-04-02T04:08:38.749Z,15.93
2018-04-02T04:11:06.743Z,9.30
2018-04-02T04:13:34.704Z,7.87
2018-04-02T04:16:02.698Z,23.60
2018-04-02T04:18:30.665Z,20.07
2018-04-02T04:20:58.725Z,21.50
2018-04-02T04:23:26.699Z,11.87
2018-04-02T04:25:54.687Z,11.93
2018-04-02T04:28:22.720Z,15.87
2018-04-02T04:30:50.774Z,14.50
2018-04-02T04:33:18.759Z,35.30
2018-04-02T04:35:46.817Z,33.23
2018-04-02T04:38:14.859Z,32.30
2018-04-02T04:40:42.865Z,52.30
2018-04-02T04:43:10.872Z,35.83
2018-04-02T04:45:38.873Z,44.30
2018-04-02T04:48:06.891Z,73.20
2018-04-02T04:50:34.994Z,60.47
2018-04-02T04:53:03.067Z,51.10
2018-04-02T04:55:31.125Z,50.83
2018-04-02T04:57:59.775Z,54.13
2018-04-02T05:00:28.618Z,50.73
2018-04-02T05:02:57.169Z,60.60
2018-04-02T05:05:25.784Z,69.67
2018-04-02T05:07:54.167Z,86.33
2018-04-02T05:10:22.417Z,67.63
2018-04-02T05:12:50.820Z,86.07
2018-04-02T05:15:18.812Z,72.50
2018-04-02T05:17:46.767Z,115.80
2018-04-02T05:20:14.777Z,222.47
2018-04-02T05:22:42.745Z,90.33
2018-04-02T05:25:10.739Z,60.43
2018-04-02T05:27:38.887Z,42.23
2018-04-02T05:30:06.860Z,97.37
2018-04-02T05:32:34.909Z,39.60
2018-04-02T05:35:02.903Z,53.03
2018-04-02T05:37:30.888Z,38.73
2018-04-02T05:39:58.846Z,20.13
2018-04-02T05:42:26.950Z,15.70
2018-04-02T05:44:54.934Z,20.73
2018-04-02T05:47:22.986Z,14.57
2018-04-02T05:49:51.048Z,18.07
2018-04-02T05:52:19.657Z,17.47
2018-04-02T05:54:47.666Z,8.83
2018-04-02T05:57:15.715Z,5.50
2018-04-02T05:59:44.941Z,10.83
2018-04-02T06:02:13.736Z,4.60
2018-04-02T06:04:41.751Z,7.80
2018-04-02T06:07:09.667Z,6.60
2018-04-02T06:09:37.682Z,5.67
2018-04-02T06:12:05.708Z,5.50
2018-04-02T06:14:33.722Z,4.63
2018-04-02T06:17:01.701Z,3.97
2018-04-02T06:19:29.793Z,5.30
2018-04-02T06:21:57.823Z,6.23
2018-04-02T06:24:25.798Z,11.10
2018-04-02T06:26:53.715Z,8.20
2018-04-02T06:29:21.681Z,9.03
2018-04-02T06:31:49.644Z,5.67
2018-04-02T06:34:17.598Z,8.57
2018-04-02T06:36:45.613Z,9.87
2018-04-02T06:39:13.622Z,19.00
2018-04-02T06:41:41.623Z,8.67
2018-04-02T06:44:09.640Z,9.47
2018-04-02T06:46:37.709Z,8.13
2018-04-02T06:49:05.752Z,5.57
2018-04-02T06:51:33.781Z,8.50
2018-04-02T06:54:01.773Z,6.40
2018-04-02T06:56:29.783Z,6.80
2018-04-02T06:58:57.861Z,5.20
2018-04-02T07:01:26.258Z,6.73
2018-04-02T07:03:54.319Z,6.00
2018-04-02T07:06:22.319Z,8.30
2018-04-02T07:08:50.271Z,2.63
2018-04-02T07:11:18.244Z,2.30
2018-04-02T07:13:46.263Z,6.30
2018-04-02T07:16:14.254Z,1.90
2018-04-02T07:18:42.239Z,4.83
2018-04-02T07:21:10.340Z,17.13
2018-04-02T07:23:38.351Z,5.00
2018-04-02T07:26:06.359Z,7.57
2018-04-02T07:28:34.371Z,15.03
2018-04-02T07:31:02.368Z,4.50
2018-04-02T07:33:30.388Z,5.40
2018-04-02T07:35:58.454Z,3.03
2018-04-02T07:38:26.494Z,12.70
2018-04-02T07:40:54.511Z,4.10
2018-04-02T07:43:22.550Z,6.30
2018-04-02T07:45:50.511Z,2.10
2018-04-02T07:48:18.555Z,3.33
2018-04-02T07:50:46.578Z,5.73
2018-04-02T07:53:14.628Z,5.47
2018-04-02T07:55:42.607Z,2.70
2018-04-02T07:58:10.621Z,12.50
2018-04-02T08:00:38.490Z,2.17
2018-04-02T08:03:06.709Z,3.20
2018-04-02T08:05:34.732Z,8.20
2018-04-02T08:08:02.713Z,6.43
2018-04-02T08:10:30.753Z,6.60
2018-04-02T08:12:58.765Z,2.70
2018-04-02T08:15:26.795Z,3.73
2018-04-02T08:17:54.879Z,2.60
2018-04-02T08:20:22.996Z,2.93
2018-04-02T08:22:51.100Z,6.10
2018-04-02T08:25:19.069Z,9.13
2018-04-02T08:27:47.088Z,2.47
2018-04-02T08:30:15.078Z,1.30
2018-04-02T08:32:43.126Z,2.00
2018-04-02T08:35:11.153Z,2.23
2018-04-02T08:37:39.171Z,2.27
2018-04-02T08:40:07.139Z,8.23
2018-04-02T08:42:35.207Z,18.40
2018-04-02T08:45:03.243Z,4.60
2018-04-02T08:47:31.250Z,6.20
2018-04-02T08:49:59.248Z,3.13
2018-04-02T08:52:27.264Z,1.30
2018-04-02T08:54:55.294Z,15.87
2018-04-02T08:57:23.184Z,2.20
2018-04-02T08:59:51.206Z,1.00
2018-04-02T09:02:19.273Z,0.90
2018-04-02T09:04:47.527Z,0.90
2018-04-02T09:07:15.536Z,1.60
2018-04-02T09:09:43.617Z,2.93
2018-04-02T09:12:11.662Z,2.40
2018-04-02T09:14:39.683Z,1.20
2018-04-02T09:17:07.630Z,1.93
2018-04-02T09:19:35.627Z,1.73
2018-04-02T09:22:03.694Z,1.03
2018-04-02T09:24:31.785Z,7.10
2018-04-02T09:26:59.872Z,1.10
2018-04-02T09:29:27.860Z,2.43
2018-04-02T09:31:55.967Z,1.20
2018-04-02T09:34:23.991Z,1.60
2018-04-02T09:36:52.052Z,0.70
2018-04-02T09:39:20.073Z,1.13
2018-04-02T09:41:48.060Z,1.00
2018-04-02T09:44:16.141Z,3.27
2018-04-02T09:46:44.153Z,1.60
2018-04-02T09:49:12.130Z,1.30
2018-04-02T09:51:40.168Z,2.50
2018-04-02T09:54:08.321Z,1.20
2018-04-02T09:56:36.349Z,1.40
2018-04-02T09:59:04.391Z,2.60
2018-04-02T10:01:32.464Z,0.97
2018-04-02T10:04:00.546Z,1.00
2018-04-02T10:06:28.808Z,1.30
2018-04-02T10:08:56.833Z,1.20
2018-04-02T10:11:24.860Z,6.10
2018-04-02T10:13:53.803Z,1.13
2018-04-02T10:16:21.779Z,7.50
2018-04-02T10:18:49.872Z,0.80
2018-04-02T10:21:17.904Z,0.73
2018-04-02T10:23:45.949Z,0.80
2018-04-02T10:26:14.018Z,1.93
2018-04-02T10:28:42.075Z,5.80
2018-04-02T10:31:10.074Z,6.43
2018-04-02T10:33:38.114Z,0.77
2018-04-02T10:36:06.186Z,3.90
2018-04-02T10:38:34.169Z,0.87
2018-04-02T10:41:02.196Z,2.40
2018-04-02T10:43:30.267Z,1.57
2018-04-02T10:45:58.255Z,4.50
2018-04-02T10:48:26.235Z,3.03
2018-04-02T10:50:54.264Z,2.70
2018-04-02T10:53:22.282Z,1.60
2018-04-02T10:55:50.310Z,3.57
2018-04-02T10:58:18.419Z,2.40
2018-04-02T11:00:46.493Z,1.73
2018-04-02T11:03:14.539Z,0.70
2018-04-02T11:05:42.521Z,2.23
2018-04-02T11:08:10.560Z,8.73
2018-04-02T11:10:38.578Z,11.30
2018-04-02T11:13:06.607Z,1.40
2018-04-02T11:15:34.672Z,20.90
2018-04-02T11:18:02.934Z,11.90
2018-04-02T11:20:31.015Z,16.93
2018-04-02T11:22:59.026Z,1.87
2018-04-02T11:25:27.055Z,4.13
2018-04-02T11:27:55.018Z,7.63
2018-04-02T11:30:22.995Z,3.13
2018-04-02T11:32:51.000Z,1.40
2018-04-02T11:35:18.965Z,6.43
2018-04-02T11:37:46.987Z,3.50
2018-04-02T11:40:15.093Z,1.73
2018-04-02T11:42:43.098Z,3.43
2018-04-02T11:45:11.111Z,6.60
2018-04-02T11:47:39.147Z,1.30
2018-04-02T11:50:07.095Z,8.73
2018-04-02T11:52:35.221Z,6.00
2018-04-02T11:55:03.352Z,2.03
2018-04-02T11:57:31.279Z,1.50
2018-04-02T11:59:59.342Z,2.57
2018-04-02T12:02:27.333Z,1.07
2018-04-02T12:04:55.328Z,0.70
2018-04-02T12:07:23.333Z,2.40
2018-04-02T12:09:51.383Z,2.50
2018-04-02T12:12:19.354Z,6.43
2018-04-02T12:14:47.411Z,1.30
2018-04-02T12:17:15.422Z,2.20
2018-04-02T12:19:43.456Z,1.33
2018-04-02T12:22:11.466Z,1.37
2018-04-02T12:24:40.316Z,2.20
2018-04-02T12:27:09.348Z,13.37
2018-04-02T12:29:37.548Z,20.93
2018-04-02T12:32:05.601Z,6.73
2018-04-02T12:34:34.408Z,9.60
2018-04-02T12:37:02.636Z,0.80
2018-04-02T12:39:30.674Z,9.50
2018-04-02T12:41:58.706Z,1.37
2018-04-02T12:44:26.710Z,2.23
2018-04-02T12:46:54.769Z,5.43
2018-04-02T12:49:22.812Z,6.43
2018-04-02T12:51:50.893Z,1.97
2018-04-02T12:54:18.915Z,3.57
2018-04-02T12:56:46.922Z,4.90
2018-04-02T12:59:15.697Z,4.00
2018-04-02T13:01:43.672Z,8.33
2018-04-02T13:04:11.685Z,10.43
2018-04-02T13:06:39.728Z,4.43
2018-04-02T13:09:07.793Z,20.57
2018-04-02T13:11:36.461Z,7.70
2018-04-02T13:14:04.619Z,7.03
2018-04-02T13:16:32.890Z,6.37
2018-04-02T13:19:00.930Z,4.80
2018-04-02T13:21:28.932Z,5.50
2018-04-02T13:23:56.910Z,3.63
2018-04-02T13:26:24.883Z,7.77
2018-04-02T13:28:52.941Z,21.90
2018-04-02T13:31:20.968Z,22.00
2018-04-02T13:33:48.892Z,20.20
2018-04-02T13:36:17.001Z,5.23
2018-04-02T13:38:44.983Z,10.20
2018-04-02T13:41:12.999Z,6.80
2018-04-02T13:43:41.011Z,4.80
2018-04-02T13:46:09.208Z,4.30
2018-04-02T13:48:37.238Z,7.17
2018-04-02T13:51:05.247Z,10.57
2018-04-02T13:53:33.292Z,90.17
2018-04-02T13:56:01.328Z,9.53
2018-04-02T13:58:29.368Z,14.30
2018-04-02T14:00:57.378Z,15.53
2018-04-02T14:03:25.545Z,116.10
2018-04-02T14:05:53.555Z,42.70
2018-04-02T14:08:21.551Z,22.53
2018-04-02T14:10:49.657Z,14.80
2018-04-02T14:13:17.811Z,18.60
2018-04-02T14:15:45.814Z,27.40
2018-04-02T14:18:13.894Z,52.93
2018-04-02T14:20:41.944Z,89.73
2018-04-02T14:23:09.973Z,76.90
2018-04-02T14:25:37.976Z,68.67
2018-04-02T14:28:05.988Z,54.80
2018-04-02T14:30:33.989Z,25.73
2018-04-02T14:33:02.022Z,24.57
2018-04-02T14:35:30.103Z,15.70
2018-04-02T14:37:58.106Z,127.43
2018-04-02T14:40:26.106Z,46.37
2018-04-02T14:42:54.061Z,4.07
2018-04-02T14:45:22.047Z,22.83
2018-04-02T14:47:50.020Z,9.73
2018-04-02T14:50:18.031Z,14.37
2018-04-02T14:52:46.144Z,11.20
2018-04-02T14:55:14.183Z,68.47
2018-04-02T14:57:42.234Z,2.40
2018-04-02T15:00:10.210Z,3.57
2018-04-02T15:02:38.235Z,78.03
2018-04-02T15:05:06.283Z,38.97
2018-04-02T15:07:34.335Z,32.23
2018-04-02T15:10:02.362Z,7.03
2018-04-02T15:12:30.442Z,4.43
2018-04-02T15:14:58.566Z,2.30
2018-04-02T15:17:26.682Z,4.90
2018-04-02T15:19:54.750Z,7.10
2018-04-02T15:22:22.730Z,3.77
2018-04-02T15:24:50.837Z,1.53
2018-04-02T15:27:18.846Z,0.93
2018-04-02T15:29:46.820Z,0.80
2018-04-02T15:32:14.915Z,9.00
2018-04-02T15:34:42.919Z,1.20
2018-04-02T15:37:10.966Z,2.03
2018-04-02T15:39:39.000Z,1.50
2018-04-02T15:42:08.113Z,3.17
2018-04-02T15:44:36.191Z,1.10
2018-04-02T15:47:04.204Z,1.87
2018-04-02T15:49:32.327Z,2.70
2018-04-02T15:52:00.315Z,1.63
2018-04-02T15:54:28.348Z,2.67
2018-04-02T15:56:56.394Z,2.10
2018-04-02T15:59:24.368Z,3.10
2018-04-02T16:01:52.438Z,7.97
2018-04-02T16:04:20.490Z,12.33
2018-04-02T16:06:48.528Z,5.50
2018-04-02T16:09:16.617Z,4.10
2018-04-02T16:11:44.782Z,5.33
2018-04-02T16:14:12.852Z,13.03
2018-04-02T16:16:41.065Z,27.57
2018-04-02T16:19:09.100Z,8.53
2018-04-02T16:21:37.101Z,12.50
2018-04-02T16:24:05.154Z,47.70
2018-04-02T16:26:33.381Z,82.97
2018-04-02T16:29:01.421Z,47.00
2018-04-02T16:31:29.426Z,42.83
2018-04-02T16:33:57.454Z,43.50
2018-04-02T16:36:25.588Z,16.80
2018-04-02T16:38:53.590Z,15.30
2018-04-02T16:41:21.674Z,25.07
2018-04-02T16:43:49.752Z,44.53
2018-04-02T16:46:17.788Z,58.50
2018-04-02T16:48:45.857Z,78.93
2018-04-02T16:51:13.880Z,88.43
2018-04-02T16:53:41.900Z,40.50
2018-04-02T16:56:09.997Z,76.10
2018-04-02T16:58:38.070Z,66.53
2018-04-02T17:01:06.229Z,115.10
2018-04-02T17:03:34.301Z,75.83
2018-04-02T17:06:02.363Z,66.53
2018-04-02T17:08:30.314Z,61.57
2018-04-02T17:10:58.246Z,66.00
2018-04-02T17:13:26.225Z,63.20
2018-04-02T17:15:54.195Z,58.10
2018-04-02T17:18:22.520Z,52.27
2018-04-02T17:20:50.509Z,53.63
2018-04-02T17:23:18.464Z,35.33
2018-04-02T17:25:46.481Z,43.97
2018-04-02T17:28:14.486Z,34.87
2018-04-02T17:30:42.552Z,24.70
2018-04-02T17:33:10.507Z,44.97
2018-04-02T17:35:38.569Z,74.37
2018-04-02T17:38:06.577Z,41.03
2018-04-02T17:40:34.792Z,46.90
2018-04-02T17:43:02.818Z,34.47
2018-04-02T17:45:30.790Z,34.90
2018-04-02T17:47:58.788Z,29.67
2018-04-02T17:50:26.853Z,35.13
2018-04-02T17:52:54.926Z,51.67
2018-04-02T17:55:22.896Z,60.37
2018-04-02T17:57:50.850Z,46.20
2018-04-02T18:00:18.952Z,61.77
2018-04-02T18:02:46.971Z,46.97
2018-04-02T18:05:15.060Z,124.27
2018-04-02T18:07:43.162Z,40.00
2018-04-02T18:10:11.090Z,26.47
2018-04-02T18:12:39.215Z,105.90
2018-04-02T18:15:07.222Z,33.73
2018-04-02T18:17:35.293Z,79.17
2018-04-02T18:20:03.577Z,46.73
2018-04-02T18:22:31.613Z,48.63
2018-04-02T18:24:59.610Z,40.43
2018-04-02T18:27:27.668Z,34.50
2018-04-02T18:29:55.708Z,59.80
2018-04-02T18:32:23.718Z,65.43
2018-04-02T18:34:51.711Z,48.80
2018-04-02T18:37:19.738Z,40.23
2018-04-02T18:39:47.705Z,43.87
2018-04-02T18:42:15.736Z,30.30
2018-04-02T18:44:43.759Z,27.47
2018-04-02T18:47:11.852Z,44.10
2018-04-02T18:49:39.907Z,56.30
2018-04-02T18:52:07.952Z,26.37
2018-04-02T18:54:35.962Z,27.50
2018-04-02T18:57:04.010Z,15.67
2018-04-02T18:59:32.065Z,16.43
2018-04-02T19:02:00.184Z,38.07
2018-04-02T19:04:28.263Z,45.70
2018-04-02T19:06:56.255Z,31.93
2018-04-02T19:09:24.300Z,20.27
2018-04-02T19:11:52.395Z,16.93
2018-04-02T19:14:20.434Z,12.47
2018-04-02T19:16:48.492Z,1.70
2018-04-02T19:19:16.434Z,1.30
2018-04-02T19:21:44.565Z,2.37
2018-04-02T19:24:12.623Z,1.80
2018-04-02T19:26:40.639Z,4.73
2018-04-02T19:29:08.689Z,19.53
2018-04-02T19:31:36.685Z,19.27
2018-04-02T19:34:04.679Z,29.03
2018-04-02T19:36:32.679Z,39.27
2018-04-02T19:39:00.663Z,52.60
2018-04-02T19:41:28.753Z,78.00
2018-04-02T19:43:56.769Z,47.43
2018-04-02T19:46:24.897Z,22.83
2018-04-02T19:48:53.001Z,50.63
2018-04-02T19:51:20.987Z,26.87
2018-04-02T19:53:48.990Z,28.50
2018-04-02T19:56:16.920Z,23.17
2018-04-02T19:58:44.983Z,33.23
2018-04-02T20:01:13.007Z,21.53
2018-04-02T20:03:41.045Z,39.30
2018-04-02T20:06:09.005Z,27.20
2018-04-02T20:08:37.015Z,19.80
2018-04-02T20:11:05.089Z,15.47
2018-04-02T20:13:33.153Z,13.20
2018-04-02T20:16:01.192Z,24.20
2018-04-02T20:18:29.196Z,17.73
2018-04-02T20:20:57.169Z,22.53
2018-04-02T20:23:25.359Z,13.53
2018-04-02T20:25:53.400Z,27.70
2018-04-02T20:28:21.557Z,15.80
2018-04-02T20:30:49.601Z,14.40
2018-04-02T20:33:17.664Z,19.30
2018-04-02T20:35:45.664Z,9.93
2018-04-02T20:38:13.637Z,7.67
2018-04-02T20:40:41.669Z,14.97
2018-04-02T20:43:09.736Z,17.10
2018-04-02T20:45:37.710Z,8.93
2018-04-02T20:48:05.646Z,17.53
2018-04-02T20:50:33.683Z,8.73
2018-04-02T20:53:01.680Z,12.67
2018-04-02T20:55:29.701Z,11.83
2018-04-02T20:57:57.667Z,10.67
2018-04-02T21:00:25.690Z,16.93
2018-04-02T21:02:53.711Z,15.23
2018-04-02T21:05:21.741Z,13.57
2018-04-02T21:07:49.719Z,23.33
2018-04-02T21:10:17.786Z,9.10
2018-04-02T21:12:45.765Z,10.37
2018-04-02T21:15:13.715Z,9.90
2018-04-02T21:17:41.702Z,18.50
2018-04-02T21:20:09.765Z,31.20
2018-04-02T21:22:37.755Z,23.60
2018-04-02T21:25:05.959Z,22.20
2018-04-02T21:27:33.984Z,23.13
2018-04-02T21:30:02.042Z,30.83
2018-04-02T21:32:30.122Z,28.17
2018-04-02T21:34:58.178Z,32.80
2018-04-02T21:37:26.182Z,31.40
2018-04-02T21:39:54.158Z,160.80
2018-04-02T21:42:22.163Z,61.90
2018-04-02T21:44:50.264Z,32.30
2018-04-02T21:47:18.258Z,43.90
2018-04-02T21:49:46.315Z,19.97
2018-04-02T21:52:14.327Z,36.83
2018-04-02T21:54:42.354Z,16.27
2018-04-02T21:57:10.385Z,20.87
2018-04-02T21:59:38.334Z,30.50
2018-04-02T22:02:06.329Z,21.47
2018-04-02T22:04:34.384Z,39.37
2018-04-02T22:07:04.118Z,30.17
2018-04-02T22:09:32.110Z,36.83
2018-04-02T22:12:00.183Z,36.10
2018-04-02T22:14:28.227Z,25.47
2018-04-02T22:16:56.231Z,26.50
2018-04-02T22:19:24.320Z,32.43
2018-04-02T22:21:52.312Z,35.90
2018-04-02T22:24:20.320Z,20.27
2018-04-02T22:26:48.510Z,20.20
2018-04-02T22:29:16.535Z,20.83
2018-04-02T22:31:44.586Z,25.23
2018-04-02T22:34:12.573Z,17.03
2018-04-02T22:36:40.679Z,14.37
2018-04-02T22:39:08.742Z,21.70
2018-04-02T22:41:36.751Z,20.00
2018-04-02T22:44:04.771Z,29.67
2018-04-02T22:46:32.739Z,10.23
2018-04-02T22:49:00.784Z,8.63
2018-04-02T22:51:28.880Z,5.90
2018-04-02T22:53:56.911Z,5.40
2018-04-02T22:56:24.984Z,5.67
2018-04-02T22:58:52.999Z,5.13
2018-04-02T23:01:21.033Z,5.10
2018-04-02T23:03:49.090Z,3.97
2018-04-02T23:06:17.224Z,3.60
2018-04-02T23:08:45.271Z,10.53
2018-04-02T23:11:13.282Z,8.83
2018-04-02T23:13:41.264Z,7.87
2018-04-02T23:16:09.288Z,6.00
2018-04-02T23:18:37.346Z,3.97
2018-04-02T23:21:05.409Z,13.67
2018-04-02T23:23:33.365Z,2.70
2018-04-02T23:26:01.355Z,2.70
2018-04-02T23:28:29.384Z,10.07
2018-04-02T23:30:57.376Z,17.93
2018-04-02T23:33:25.419Z,12.37
2018-04-02T23:35:53.388Z,5.17
2018-04-02T23:38:21.355Z,12.50
2018-04-02T23:40:49.358Z,8.53
2018-04-02T23:43:17.358Z,5.93
2018-04-02T23:45:45.327Z,7.23
2018-04-02T23:48:13.371Z,8.33
2018-04-02T23:50:41.424Z,10.10
2018-04-02T23:53:09.384Z,6.40
2018-04-02T23:55:37.461Z,3.00
2018-04-02T23:58:05.454Z,3.80
